sensor_id;sensor_type;location;lat;lon;timestamp;P1;durP1;ratioP1;P2;durP2;ratioP2
19869;SDS011;10097;50.862;4.696;2022-10-16T00:00:18;4.67;;;0.97;;
19869;SDS011;10097;50.862;4.696;2022-10-16T00:02:44;5.90;;;0.97;;
19869;SDS011;10097;50.862;4.696;2022-10-16T00:05:09;7.43;;;0.90;;
19869;SDS011;10097;50.862;4.696;2022-10-16T00:07:35;3.07;;;0.80;;
19869;SDS011;10097;50.862;4.696;2022-10-16T00:10:01;1.53;;;0.60;;
19869;SDS011;10097;50.862;4.696;2022-10-16T00:12:26;3.70;;;0.73;;
19869;SDS011;10097;50.862;4.696;2022-10-16T00:14:52;4.50;;;0.80;;
19869;SDS011;10097;50.862;4.696;2022-10-16T00:17:18;4.13;;;0.90;;
19869;SDS011;10097;50.862;4.696;2022-10-16T00:19:43;1.70;;;0.80;;
19869;SDS011;10097;50.862;4.696;2022-10-16T00:22:09;2.43;;;0.90;;
19869;SDS011;10097;50.862;4.696;2022-10-16T00:24:36;2.10;;;0.70;;
19869;SDS011;10097;50.862;4.696;2022-10-16T00:27:01;3.80;;;0.90;;
19869;SDS011;10097;50.862;4.696;2022-10-16T00:29:27;1.73;;;0.50;;
19869;SDS011;10097;50.862;4.696;2022-10-16T00:31:53;3.13;;;0.80;;
19869;SDS011;10097;50.862;4.696;2022-10-16T00:34:18;6.40;;;0.97;;
19869;SDS011;10097;50.862;4.696;2022-10-16T00:36:44;2.47;;;0.80;;
19869;SDS011;10097;50.862;4.696;2022-10-16T00:39:09;4.27;;;0.60;;
19869;SDS011;10097;50.862;4.696;2022-10-16T00:41:35;3.67;;;0.90;;
19869;SDS011;10097;50.862;4.696;2022-10-16T00:44:02;2.37;;;0.67;;
19869;SDS011;10097;50.862;4.696;2022-10-16T00:46:48;1.57;;;0.50;;
19869;SDS011;10097;50.862;4.696;2022-10-16T00:49:16;1.07;;;0.63;;
19869;SDS011;10097;50.862;4.696;2022-10-16T00:51:47;2.53;;;0.80;;
19869;SDS011;10097;50.862;4.696;2022-10-16T00:54:26;2.47;;;0.87;;
19869;SDS011;10097;50.862;4.696;2022-10-16T00:56:54;2.77;;;0.57;;
19869;SDS011;10097;50.862;4.696;2022-10-16T00:59:29;2.57;;;0.90;;
19869;SDS011;10097;50.862;4.696;2022-10-16T01:02:00;4.27;;;0.87;;
19869;SDS011;10097;50.862;4.696;2022-10-16T01:04:27;1.17;;;0.53;;
19869;SDS011;10097;50.862;4.696;2022-10-16T01:12:31;2.30;;;0.60;;
19869;SDS011;10097;50.862;4.696;2022-10-16T01:18:43;1.00;;;0.53;;
19869;SDS011;10097;50.862;4.696;2022-10-16T01:21:05;1.37;;;0.60;;
19869;SDS011;10097;50.862;4.696;2022-10-16T01:23:41;2.93;;;1.00;;
19869;SDS011;10097;50.862;4.696;2022-10-16T01:31:19;3.20;;;0.73;;
19869;SDS011;10097;50.862;4.696;2022-10-16T01:33:58;3.03;;;0.90;;
19869;SDS011;10097;50.862;4.696;2022-10-16T01:36:42;1.97;;;0.63;;
19869;SDS011;10097;50.862;4.696;2022-10-16T01:39:13;3.90;;;0.80;;
19869;SDS011;10097;50.862;4.696;2022-10-16T01:41:45;6.03;;;1.10;;
19869;SDS011;10097;50.862;4.696;2022-10-16T01:44:21;6.00;;;0.83;;
19869;SDS011;10097;50.862;4.696;2022-10-16T01:46:54;3.83;;;0.90;;
19869;SDS011;10097;50.862;4.696;2022-10-16T01:49:21;4.40;;;0.93;;
19869;SDS011;10097;50.862;4.696;2022-10-16T01:51:50;2.23;;;0.63;;
19869;SDS011;10097;50.862;4.696;2022-10-16T01:54:19;2.63;;;0.90;;
19869;SDS011;10097;50.862;4.696;2022-10-16T01:56:48;3.77;;;0.70;;
19869;SDS011;10097;50.862;4.696;2022-10-16T01:59:16;2.33;;;0.80;;
19869;SDS011;10097;50.862;4.696;2022-10-16T02:01:49;3.37;;;0.70;;
19869;SDS011;10097;50.862;4.696;2022-10-16T02:04:34;4.83;;;1.07;;
19869;SDS011;10097;50.862;4.696;2022-10-16T02:07:04;2.20;;;0.70;;
19869;SDS011;10097;50.862;4.696;2022-10-16T02:09:31;4.13;;;0.80;;
19869;SDS011;10097;50.862;4.696;2022-10-16T02:11:59;2.43;;;0.57;;
19869;SDS011;10097;50.862;4.696;2022-10-16T02:14:29;4.63;;;0.77;;
19869;SDS011;10097;50.862;4.696;2022-10-16T02:16:55;2.17;;;0.77;;
19869;SDS011;10097;50.862;4.696;2022-10-16T02:19:20;2.00;;;0.80;;
19869;SDS011;10097;50.862;4.696;2022-10-16T02:21:54;2.40;;;0.80;;
19869;SDS011;10097;50.862;4.696;2022-10-16T02:24:58;3.33;;;1.03;;
19869;SDS011;10097;50.862;4.696;2022-10-16T02:27:33;4.17;;;0.90;;
19869;SDS011;10097;50.862;4.696;2022-10-16T02:30:20;3.90;;;0.93;;
19869;SDS011;10097;50.862;4.696;2022-10-16T02:32:52;4.73;;;1.03;;
19869;SDS011;10097;50.862;4.696;2022-10-16T02:35:20;4.40;;;1.17;;
19869;SDS011;10097;50.862;4.696;2022-10-16T02:37:47;3.03;;;0.80;;
19869;SDS011;10097;50.862;4.696;2022-10-16T02:40:15;2.27;;;0.90;;
19869;SDS011;10097;50.862;4.696;2022-10-16T02:42:42;4.70;;;0.93;;
19869;SDS011;10097;50.862;4.696;2022-10-16T02:45:08;2.77;;;0.97;;
19869;SDS011;10097;50.862;4.696;2022-10-16T02:47:35;2.53;;;0.80;;
19869;SDS011;10097;50.862;4.696;2022-10-16T02:50:02;5.13;;;1.17;;
19869;SDS011;10097;50.862;4.696;2022-10-16T02:52:28;4.53;;;0.90;;
19869;SDS011;10097;50.862;4.696;2022-10-16T02:54:54;3.60;;;0.90;;
19869;SDS011;10097;50.862;4.696;2022-10-16T02:57:20;3.47;;;0.93;;
19869;SDS011;10097;50.862;4.696;2022-10-16T02:59:45;3.37;;;0.80;;
19869;SDS011;10097;50.862;4.696;2022-10-16T03:02:11;4.87;;;0.73;;
19869;SDS011;10097;50.862;4.696;2022-10-16T03:04:37;2.47;;;0.80;;
19869;SDS011;10097;50.862;4.696;2022-10-16T03:07:03;5.63;;;1.30;;
19869;SDS011;10097;50.862;4.696;2022-10-16T03:09:29;3.00;;;0.87;;
19869;SDS011;10097;50.862;4.696;2022-10-16T03:11:54;4.07;;;0.93;;
19869;SDS011;10097;50.862;4.696;2022-10-16T03:14:20;5.23;;;1.00;;
19869;SDS011;10097;50.862;4.696;2022-10-16T03:16:46;3.30;;;1.00;;
19869;SDS011;10097;50.862;4.696;2022-10-16T03:19:11;4.07;;;1.10;;
19869;SDS011;10097;50.862;4.696;2022-10-16T03:21:37;1.97;;;0.83;;
19869;SDS011;10097;50.862;4.696;2022-10-16T03:24:03;4.47;;;1.10;;
19869;SDS011;10097;50.862;4.696;2022-10-16T03:26:29;2.60;;;0.80;;
19869;SDS011;10097;50.862;4.696;2022-10-16T03:28:54;3.47;;;1.27;;
19869;SDS011;10097;50.862;4.696;2022-10-16T03:31:20;5.97;;;1.40;;
19869;SDS011;10097;50.862;4.696;2022-10-16T03:33:45;2.37;;;0.90;;
19869;SDS011;10097;50.862;4.696;2022-10-16T03:36:11;3.43;;;1.20;;
19869;SDS011;10097;50.862;4.696;2022-10-16T03:38:37;3.10;;;1.00;;
19869;SDS011;10097;50.862;4.696;2022-10-16T03:41:02;7.17;;;1.33;;
19869;SDS011;10097;50.862;4.696;2022-10-16T03:43:29;5.10;;;1.77;;
19869;SDS011;10097;50.862;4.696;2022-10-16T03:45:54;3.53;;;0.97;;
19869;SDS011;10097;50.862;4.696;2022-10-16T03:48:20;7.50;;;1.37;;
19869;SDS011;10097;50.862;4.696;2022-10-16T03:50:46;4.77;;;1.20;;
19869;SDS011;10097;50.862;4.696;2022-10-16T03:53:13;3.13;;;1.13;;
19869;SDS011;10097;50.862;4.696;2022-10-16T03:55:40;2.53;;;0.90;;
19869;SDS011;10097;50.862;4.696;2022-10-16T03:58:07;5.13;;;1.17;;
19869;SDS011;10097;50.862;4.696;2022-10-16T04:00:32;4.73;;;1.13;;
19869;SDS011;10097;50.862;4.696;2022-10-16T04:02:59;3.70;;;1.07;;
19869;SDS011;10097;50.862;4.696;2022-10-16T04:05:25;6.50;;;1.43;;
19869;SDS011;10097;50.862;4.696;2022-10-16T04:07:51;4.37;;;1.30;;
19869;SDS011;10097;50.862;4.696;2022-10-16T04:10:16;4.10;;;1.10;;
19869;SDS011;10097;50.862;4.696;2022-10-16T04:12:42;3.93;;;1.10;;
19869;SDS011;10097;50.862;4.696;2022-10-16T04:15:08;7.03;;;1.10;;
19869;SDS011;10097;50.862;4.696;2022-10-16T04:17:34;2.63;;;1.10;;
19869;SDS011;10097;50.862;4.696;2022-10-16T04:20:00;4.27;;;1.00;;
19869;SDS011;10097;50.862;4.696;2022-10-16T04:22:26;4.30;;;1.43;;
19869;SDS011;10097;50.862;4.696;2022-10-16T04:24:51;6.67;;;1.17;;
19869;SDS011;10097;50.862;4.696;2022-10-16T04:27:17;3.53;;;1.20;;
19869;SDS011;10097;50.862;4.696;2022-10-16T04:29:43;4.27;;;1.27;;
19869;SDS011;10097;50.862;4.696;2022-10-16T04:32:09;5.03;;;1.50;;
19869;SDS011;10097;50.862;4.696;2022-10-16T04:34:34;2.93;;;1.10;;
19869;SDS011;10097;50.862;4.696;2022-10-16T04:37:00;4.57;;;1.33;;
19869;SDS011;10097;50.862;4.696;2022-10-16T04:39:26;6.90;;;1.40;;
19869;SDS011;10097;50.862;4.696;2022-10-16T04:41:51;3.27;;;1.13;;
19869;SDS011;10097;50.862;4.696;2022-10-16T04:44:17;6.73;;;1.23;;
19869;SDS011;10097;50.862;4.696;2022-10-16T04:46:42;5.67;;;1.50;;
19869;SDS011;10097;50.862;4.696;2022-10-16T04:49:09;4.13;;;1.47;;
19869;SDS011;10097;50.862;4.696;2022-10-16T04:51:35;5.23;;;1.37;;
19869;SDS011;10097;50.862;4.696;2022-10-16T04:54:00;3.93;;;1.30;;
19869;SDS011;10097;50.862;4.696;2022-10-16T04:56:26;8.97;;;2.40;;
19869;SDS011;10097;50.862;4.696;2022-10-16T04:58:52;4.33;;;1.43;;
19869;SDS011;10097;50.862;4.696;2022-10-16T05:01:18;3.83;;;1.47;;
19869;SDS011;10097;50.862;4.696;2022-10-16T05:03:43;4.53;;;1.30;;
19869;SDS011;10097;50.862;4.696;2022-10-16T05:06:09;3.70;;;1.50;;
19869;SDS011;10097;50.862;4.696;2022-10-16T05:08:34;5.70;;;1.50;;
19869;SDS011;10097;50.862;4.696;2022-10-16T05:11:00;4.77;;;1.40;;
19869;SDS011;10097;50.862;4.696;2022-10-16T05:13:26;5.73;;;1.43;;
19869;SDS011;10097;50.862;4.696;2022-10-16T05:15:52;2.47;;;1.20;;
19869;SDS011;10097;50.862;4.696;2022-10-16T05:18:18;4.70;;;1.70;;
19869;SDS011;10097;50.862;4.696;2022-10-16T05:20:43;6.03;;;1.90;;
19869;SDS011;10097;50.862;4.696;2022-10-16T05:23:09;5.47;;;1.70;;
19869;SDS011;10097;50.862;4.696;2022-10-16T05:25:35;5.67;;;1.73;;
19869;SDS011;10097;50.862;4.696;2022-10-16T05:28:02;5.33;;;1.63;;
19869;SDS011;10097;50.862;4.696;2022-10-16T05:30:27;5.80;;;1.80;;
19869;SDS011;10097;50.862;4.696;2022-10-16T05:32:53;5.90;;;1.47;;
19869;SDS011;10097;50.862;4.696;2022-10-16T05:35:19;4.20;;;1.40;;
19869;SDS011;10097;50.862;4.696;2022-10-16T05:37:45;8.53;;;1.93;;
19869;SDS011;10097;50.862;4.696;2022-10-16T05:40:11;5.40;;;1.67;;
19869;SDS011;10097;50.862;4.696;2022-10-16T05:42:38;5.50;;;1.90;;
19869;SDS011;10097;50.862;4.696;2022-10-16T05:45:04;7.23;;;2.30;;
19869;SDS011;10097;50.862;4.696;2022-10-16T05:47:31;6.00;;;1.77;;
19869;SDS011;10097;50.862;4.696;2022-10-16T05:49:57;4.37;;;1.77;;
19869;SDS011;10097;50.862;4.696;2022-10-16T05:52:22;8.73;;;1.80;;
19869;SDS011;10097;50.862;4.696;2022-10-16T05:54:48;3.53;;;1.57;;
19869;SDS011;10097;50.862;4.696;2022-10-16T05:57:14;4.37;;;1.60;;
19869;SDS011;10097;50.862;4.696;2022-10-16T05:59:40;4.37;;;1.60;;
19869;SDS011;10097;50.862;4.696;2022-10-16T06:02:05;7.00;;;2.00;;
19869;SDS011;10097;50.862;4.696;2022-10-16T06:04:33;4.97;;;1.80;;
19869;SDS011;10097;50.862;4.696;2022-10-16T06:06:59;7.53;;;1.53;;
19869;SDS011;10097;50.862;4.696;2022-10-16T06:09:27;5.30;;;1.80;;
19869;SDS011;10097;50.862;4.696;2022-10-16T06:11:53;5.83;;;1.80;;
19869;SDS011;10097;50.862;4.696;2022-10-16T06:14:19;6.83;;;1.87;;
19869;SDS011;10097;50.862;4.696;2022-10-16T06:16:44;5.47;;;1.33;;
19869;SDS011;10097;50.862;4.696;2022-10-16T06:19:10;5.00;;;2.00;;
19869;SDS011;10097;50.862;4.696;2022-10-16T06:21:36;7.23;;;2.00;;
19869;SDS011;10097;50.862;4.696;2022-10-16T06:24:01;6.20;;;1.53;;
19869;SDS011;10097;50.862;4.696;2022-10-16T06:26:28;5.27;;;1.70;;
19869;SDS011;10097;50.862;4.696;2022-10-16T06:28:56;5.53;;;2.47;;
19869;SDS011;10097;50.862;4.696;2022-10-16T06:31:23;5.77;;;2.13;;
19869;SDS011;10097;50.862;4.696;2022-10-16T06:33:52;8.70;;;2.00;;
19869;SDS011;10097;50.862;4.696;2022-10-16T06:36:19;5.93;;;1.87;;
19869;SDS011;10097;50.862;4.696;2022-10-16T06:38:45;5.23;;;2.00;;
19869;SDS011;10097;50.862;4.696;2022-10-16T06:41:13;8.10;;;2.17;;
19869;SDS011;10097;50.862;4.696;2022-10-16T06:43:45;5.23;;;2.00;;
19869;SDS011;10097;50.862;4.696;2022-10-16T06:46:12;8.63;;;2.07;;
19869;SDS011;10097;50.862;4.696;2022-10-16T06:48:40;6.03;;;1.90;;
19869;SDS011;10097;50.862;4.696;2022-10-16T06:51:08;7.70;;;1.73;;
19869;SDS011;10097;50.862;4.696;2022-10-16T06:53:37;5.37;;;2.00;;
19869;SDS011;10097;50.862;4.696;2022-10-16T06:56:13;4.97;;;2.20;;
19869;SDS011;10097;50.862;4.696;2022-10-16T06:58:41;5.70;;;2.00;;
19869;SDS011;10097;50.862;4.696;2022-10-16T07:01:08;7.10;;;2.00;;
19869;SDS011;10097;50.862;4.696;2022-10-16T07:03:39;4.90;;;1.97;;
19869;SDS011;10097;50.862;4.696;2022-10-16T07:06:08;6.47;;;1.97;;
19869;SDS011;10097;50.862;4.696;2022-10-16T07:08:35;6.03;;;2.33;;
19869;SDS011;10097;50.862;4.696;2022-10-16T07:11:03;4.33;;;2.00;;
19869;SDS011;10097;50.862;4.696;2022-10-16T07:13:38;6.40;;;2.90;;
19869;SDS011;10097;50.862;4.696;2022-10-16T07:16:10;6.97;;;2.33;;
19869;SDS011;10097;50.862;4.696;2022-10-16T07:18:40;8.63;;;2.80;;
19869;SDS011;10097;50.862;4.696;2022-10-16T07:21:11;7.67;;;2.00;;
19869;SDS011;10097;50.862;4.696;2022-10-16T07:23:40;6.70;;;1.73;;
19869;SDS011;10097;50.862;4.696;2022-10-16T07:26:06;6.30;;;2.27;;
19869;SDS011;10097;50.862;4.696;2022-10-16T07:28:32;6.83;;;1.93;;
19869;SDS011;10097;50.862;4.696;2022-10-16T07:31:02;6.13;;;2.10;;
19869;SDS011;10097;50.862;4.696;2022-10-16T07:33:30;7.53;;;2.13;;
19869;SDS011;10097;50.862;4.696;2022-10-16T07:35:56;9.13;;;2.00;;
19869;SDS011;10097;50.862;4.696;2022-10-16T07:38:25;3.83;;;1.70;;
19869;SDS011;10097;50.862;4.696;2022-10-16T07:40:58;7.30;;;1.80;;
19869;SDS011;10097;50.862;4.696;2022-10-16T07:43:25;8.93;;;1.67;;
19869;SDS011;10097;50.862;4.696;2022-10-16T07:45:52;8.00;;;2.00;;
19869;SDS011;10097;50.862;4.696;2022-10-16T07:48:18;6.03;;;2.00;;
19869;SDS011;10097;50.862;4.696;2022-10-16T07:50:45;5.77;;;2.00;;
19869;SDS011;10097;50.862;4.696;2022-10-16T07:53:14;6.07;;;2.77;;
19869;SDS011;10097;50.862;4.696;2022-10-16T07:55:40;7.73;;;1.83;;
19869;SDS011;10097;50.862;4.696;2022-10-16T07:58:06;6.97;;;1.87;;
19869;SDS011;10097;50.862;4.696;2022-10-16T08:00:33;5.60;;;1.93;;
19869;SDS011;10097;50.862;4.696;2022-10-16T08:02:59;5.47;;;1.60;;
19869;SDS011;10097;50.862;4.696;2022-10-16T08:05:28;4.87;;;1.97;;
19869;SDS011;10097;50.862;4.696;2022-10-16T08:07:56;7.97;;;2.07;;
19869;SDS011;10097;50.862;4.696;2022-10-16T08:10:22;4.80;;;1.63;;
19869;SDS011;10097;50.862;4.696;2022-10-16T08:12:49;3.57;;;1.50;;
19869;SDS011;10097;50.862;4.696;2022-10-16T08:15:15;4.67;;;1.33;;
19869;SDS011;10097;50.862;4.696;2022-10-16T08:17:42;6.57;;;2.07;;
19869;SDS011;10097;50.862;4.696;2022-10-16T08:20:07;7.50;;;2.07;;
19869;SDS011;10097;50.862;4.696;2022-10-16T08:22:34;5.67;;;1.50;;
19869;SDS011;10097;50.862;4.696;2022-10-16T08:25:00;8.07;;;1.60;;
19869;SDS011;10097;50.862;4.696;2022-10-16T08:27:30;3.60;;;1.43;;
19869;SDS011;10097;50.862;4.696;2022-10-16T08:29:56;4.63;;;1.47;;
19869;SDS011;10097;50.862;4.696;2022-10-16T08:32:22;3.37;;;1.70;;
19869;SDS011;10097;50.862;4.696;2022-10-16T08:34:48;6.25;;;1.45;;
19869;SDS011;10097;50.862;4.696;2022-10-16T08:37:13;4.23;;;1.37;;
19869;SDS011;10097;50.862;4.696;2022-10-16T08:39:39;4.00;;;1.30;;
19869;SDS011;10097;50.862;4.696;2022-10-16T08:45:05;5.53;;;1.40;;
19869;SDS011;10097;50.862;4.696;2022-10-16T08:50:29;8.60;;;1.23;;
19869;SDS011;10097;50.862;4.696;2022-10-16T08:52:57;4.38;;;1.52;;
19869;SDS011;10097;50.862;4.696;2022-10-16T08:58:20;6.00;;;1.20;;
19869;SDS011;10097;50.862;4.696;2022-10-16T09:00:48;4.40;;;1.10;;
19869;SDS011;10097;50.862;4.696;2022-10-16T09:03:29;3.95;;;0.98;;
19869;SDS011;10097;50.862;4.696;2022-10-16T09:06:27;3.03;;;0.70;;
19869;SDS011;10097;50.862;4.696;2022-10-16T09:09:19;6.93;;;1.10;;
19869;SDS011;10097;50.862;4.696;2022-10-16T09:17:14;4.43;;;1.08;;
19869;SDS011;10097;50.862;4.696;2022-10-16T09:19:44;7.28;;;1.20;;
19869;SDS011;10097;50.862;4.696;2022-10-16T09:22:18;4.82;;;1.20;;
19869;SDS011;10097;50.862;4.696;2022-10-16T09:24:48;8.27;;;1.42;;
19869;SDS011;10097;50.862;4.696;2022-10-16T09:27:14;7.82;;;1.00;;
19869;SDS011;10097;50.862;4.696;2022-10-16T09:29:40;7.15;;;1.17;;
19869;SDS011;10097;50.862;4.696;2022-10-16T09:32:11;5.32;;;1.58;;
19869;SDS011;10097;50.862;4.696;2022-10-16T09:34:43;10.38;;;1.80;;
19869;SDS011;10097;50.862;4.696;2022-10-16T09:37:14;2.95;;;0.93;;
19869;SDS011;10097;50.862;4.696;2022-10-16T09:39:44;4.28;;;1.02;;
19869;SDS011;10097;50.862;4.696;2022-10-16T09:42:15;4.53;;;0.80;;
19869;SDS011;10097;50.862;4.696;2022-10-16T09:44:51;4.43;;;0.80;;
19869;SDS011;10097;50.862;4.696;2022-10-16T09:52:20;9.30;;;1.30;;
19869;SDS011;10097;50.862;4.696;2022-10-16T09:54:52;3.13;;;0.60;;
19869;SDS011;10097;50.862;4.696;2022-10-16T09:57:18;4.38;;;1.40;;
19869;SDS011;10097;50.862;4.696;2022-10-16T09:59:49;6.28;;;1.02;;
19869;SDS011;10097;50.862;4.696;2022-10-16T10:02:20;4.82;;;0.80;;
19869;SDS011;10097;50.862;4.696;2022-10-16T10:05:42;4.47;;;0.77;;
19869;SDS011;10097;50.862;4.696;2022-10-16T10:08:02;3.85;;;0.82;;
19869;SDS011;10097;50.862;4.696;2022-10-16T10:10:31;5.15;;;0.60;;
19869;SDS011;10097;50.862;4.696;2022-10-16T10:13:20;3.95;;;1.65;;
19869;SDS011;10097;50.862;4.696;2022-10-16T10:15:47;4.90;;;1.23;;
19869;SDS011;10097;50.862;4.696;2022-10-16T10:18:18;5.20;;;1.10;;
19869;SDS011;10097;50.862;4.696;2022-10-16T10:20:46;5.07;;;1.05;;
19869;SDS011;10097;50.862;4.696;2022-10-16T10:23:24;3.28;;;0.77;;
19869;SDS011;10097;50.862;4.696;2022-10-16T10:28:53;5.47;;;0.88;;
19869;SDS011;10097;50.862;4.696;2022-10-16T10:46:57;6.80;;;0.75;;
19869;SDS011;10097;50.862;4.696;2022-10-16T10:49:47;4.60;;;1.00;;
19869;SDS011;10097;50.862;4.696;2022-10-16T11:01:26;9.07;;;1.13;;
19869;SDS011;10097;50.862;4.696;2022-10-16T11:06:40;4.32;;;0.75;;
19869;SDS011;10097;50.862;4.696;2022-10-16T11:09:10;4.65;;;0.88;;
19869;SDS011;10097;50.862;4.696;2022-10-16T11:11:44;9.90;;;1.05;;
19869;SDS011;10097;50.862;4.696;2022-10-16T11:14:21;8.30;;;1.00;;
19869;SDS011;10097;50.862;4.696;2022-10-16T11:16:56;5.45;;;0.90;;
19869;SDS011;10097;50.862;4.696;2022-10-16T11:19:46;3.25;;;0.70;;
19869;SDS011;10097;50.862;4.696;2022-10-16T11:22:37;5.68;;;0.73;;
19869;SDS011;10097;50.862;4.696;2022-10-16T11:28:01;3.35;;;0.75;;
19869;SDS011;10097;50.862;4.696;2022-10-16T11:31:03;6.00;;;0.70;;
19869;SDS011;10097;50.862;4.696;2022-10-16T11:33:36;4.65;;;0.73;;
19869;SDS011;10097;50.862;4.696;2022-10-16T11:39:00;5.68;;;1.05;;
19869;SDS011;10097;50.862;4.696;2022-10-16T11:50:20;7.63;;;1.10;;
19869;SDS011;10097;50.862;4.696;2022-10-16T11:53:28;5.63;;;0.70;;
19869;SDS011;10097;50.862;4.696;2022-10-16T11:56:16;4.28;;;0.73;;
19869;SDS011;10097;50.862;4.696;2022-10-16T11:58:50;7.70;;;1.00;;
19869;SDS011;10097;50.862;4.696;2022-10-16T12:06:51;5.97;;;0.90;;
19869;SDS011;10097;50.862;4.696;2022-10-16T12:09:32;6.35;;;0.95;;
19869;SDS011;10097;50.862;4.696;2022-10-16T12:12:01;7.38;;;0.98;;
19869;SDS011;10097;50.862;4.696;2022-10-16T12:19:44;6.32;;;0.93;;
19869;SDS011;10097;50.862;4.696;2022-10-16T12:22:24;5.05;;;0.98;;
19869;SDS011;10097;50.862;4.696;2022-10-16T12:24:53;5.35;;;0.70;;
19869;SDS011;10097;50.862;4.696;2022-10-16T12:27:31;5.03;;;0.80;;
19869;SDS011;10097;50.862;4.696;2022-10-16T12:29:59;3.85;;;0.90;;
19869;SDS011;10097;50.862;4.696;2022-10-16T12:32:34;4.68;;;0.80;;
19869;SDS011;10097;50.862;4.696;2022-10-16T12:35:04;4.00;;;0.73;;
19869;SDS011;10097;50.862;4.696;2022-10-16T12:37:44;7.28;;;0.80;;
19869;SDS011;10097;50.862;4.696;2022-10-16T12:40:12;5.10;;;0.88;;
19869;SDS011;10097;50.862;4.696;2022-10-16T12:42:40;8.30;;;1.02;;
19869;SDS011;10097;50.862;4.696;2022-10-16T12:47:51;8.52;;;0.70;;
19869;SDS011;10097;50.862;4.696;2022-10-16T12:50:23;6.50;;;1.08;;
19869;SDS011;10097;50.862;4.696;2022-10-16T12:52:50;1.70;;;0.40;;
19869;SDS011;10097;50.862;4.696;2022-10-16T12:55:17;3.22;;;0.65;;
19869;SDS011;10097;50.862;4.696;2022-10-16T13:17:26;5.05;;;0.77;;
19869;SDS011;10097;50.862;4.696;2022-10-16T13:22:51;3.65;;;0.85;;
19869;SDS011;10097;50.862;4.696;2022-10-16T13:28:39;3.85;;;0.57;;
19869;SDS011;10097;50.862;4.696;2022-10-16T13:31:05;4.78;;;0.70;;
19869;SDS011;10097;50.862;4.696;2022-10-16T13:33:41;5.90;;;0.60;;
19869;SDS011;10097;50.862;4.696;2022-10-16T13:36:24;4.35;;;0.82;;
19869;SDS011;10097;50.862;4.696;2022-10-16T13:39:22;5.43;;;0.95;;
19869;SDS011;10097;50.862;4.696;2022-10-16T13:44:52;8.90;;;0.93;;
19869;SDS011;10097;50.862;4.696;2022-10-16T13:49:46;4.82;;;1.33;;
19869;SDS011;10097;50.862;4.696;2022-10-16T13:52:23;6.97;;;0.82;;
19869;SDS011;10097;50.862;4.696;2022-10-16T13:54:49;6.10;;;0.95;;
19869;SDS011;10097;50.862;4.696;2022-10-16T13:57:16;7.45;;;1.40;;
19869;SDS011;10097;50.862;4.696;2022-10-16T13:59:42;4.75;;;0.85;;
19869;SDS011;10097;50.862;4.696;2022-10-16T14:02:27;3.20;;;0.80;;
19869;SDS011;10097;50.862;4.696;2022-10-16T14:05:03;6.20;;;0.80;;
19869;SDS011;10097;50.862;4.696;2022-10-16T14:07:34;4.13;;;0.73;;
19869;SDS011;10097;50.862;4.696;2022-10-16T14:10:02;5.43;;;0.77;;
19869;SDS011;10097;50.862;4.696;2022-10-16T14:12:30;4.50;;;0.70;;
19869;SDS011;10097;50.862;4.696;2022-10-16T14:14:57;2.83;;;0.73;;
19869;SDS011;10097;50.862;4.696;2022-10-16T14:17:25;5.85;;;0.60;;
19869;SDS011;10097;50.862;4.696;2022-10-16T14:19:55;5.25;;;0.50;;
19869;SDS011;10097;50.862;4.696;2022-10-16T14:22:27;5.75;;;0.77;;
19869;SDS011;10097;50.862;4.696;2022-10-16T14:28:13;5.18;;;0.77;;
19869;SDS011;10097;50.862;4.696;2022-10-16T14:30:54;2.72;;;0.60;;
19869;SDS011;10097;50.862;4.696;2022-10-16T14:33:31;3.42;;;0.93;;
19869;SDS011;10097;50.862;4.696;2022-10-16T14:36:00;6.40;;;0.93;;
19869;SDS011;10097;50.862;4.696;2022-10-16T14:38:35;2.60;;;0.60;;
19869;SDS011;10097;50.862;4.696;2022-10-16T14:41:03;4.30;;;0.50;;
19869;SDS011;10097;50.862;4.696;2022-10-16T14:43:39;4.88;;;0.82;;
19869;SDS011;10097;50.862;4.696;2022-10-16T14:46:09;3.97;;;0.52;;
19869;SDS011;10097;50.862;4.696;2022-10-16T14:48:42;3.85;;;0.60;;
19869;SDS011;10097;50.862;4.696;2022-10-16T14:51:19;6.55;;;0.77;;
19869;SDS011;10097;50.862;4.696;2022-10-16T14:53:45;2.92;;;0.50;;
19869;SDS011;10097;50.862;4.696;2022-10-16T14:56:19;4.90;;;0.70;;
19869;SDS011;10097;50.862;4.696;2022-10-16T14:58:48;3.00;;;0.52;;
19869;SDS011;10097;50.862;4.696;2022-10-16T15:01:15;4.93;;;0.98;;
19869;SDS011;10097;50.862;4.696;2022-10-16T15:03:41;4.75;;;0.50;;
19869;SDS011;10097;50.862;4.696;2022-10-16T15:06:16;6.43;;;0.70;;
19869;SDS011;10097;50.862;4.696;2022-10-16T15:08:42;2.85;;;0.40;;
19869;SDS011;10097;50.862;4.696;2022-10-16T15:11:17;6.57;;;1.00;;
19869;SDS011;10097;50.862;4.696;2022-10-16T15:13:44;9.70;;;0.77;;
19869;SDS011;10097;50.862;4.696;2022-10-16T15:16:11;4.78;;;0.70;;
19869;SDS011;10097;50.862;4.696;2022-10-16T15:18:39;3.22;;;0.60;;
19869;SDS011;10097;50.862;4.696;2022-10-16T15:21:05;5.85;;;0.60;;
19869;SDS011;10097;50.862;4.696;2022-10-16T15:23:31;4.78;;;0.80;;
19869;SDS011;10097;50.862;4.696;2022-10-16T15:25:56;2.83;;;0.77;;
19869;SDS011;10097;50.862;4.696;2022-10-16T15:28:23;3.35;;;0.80;;
19869;SDS011;10097;50.862;4.696;2022-10-16T15:30:51;2.55;;;0.65;;
19869;SDS011;10097;50.862;4.696;2022-10-16T15:33:20;3.72;;;0.63;;
19869;SDS011;10097;50.862;4.696;2022-10-16T15:35:48;3.70;;;0.65;;
19869;SDS011;10097;50.862;4.696;2022-10-16T15:38:15;5.57;;;0.70;;
19869;SDS011;10097;50.862;4.696;2022-10-16T15:40:46;7.78;;;0.98;;
19869;SDS011;10097;50.862;4.696;2022-10-16T15:43:12;5.88;;;0.80;;
19869;SDS011;10097;50.862;4.696;2022-10-16T15:45:38;7.03;;;0.77;;
19869;SDS011;10097;50.862;4.696;2022-10-16T15:48:04;5.95;;;1.15;;
19869;SDS011;10097;50.862;4.696;2022-10-16T15:50:30;4.55;;;0.80;;
19869;SDS011;10097;50.862;4.696;2022-10-16T15:52:56;9.68;;;1.00;;
19869;SDS011;10097;50.862;4.696;2022-10-16T15:55:22;6.68;;;1.00;;
19869;SDS011;10097;50.862;4.696;2022-10-16T15:57:48;3.15;;;0.90;;
19869;SDS011;10097;50.862;4.696;2022-10-16T16:00:15;4.40;;;1.10;;
19869;SDS011;10097;50.862;4.696;2022-10-16T16:02:43;4.53;;;1.00;;
19869;SDS011;10097;50.862;4.696;2022-10-16T16:05:14;5.63;;;1.25;;
19869;SDS011;10097;50.862;4.696;2022-10-16T16:07:40;5.90;;;1.73;;
19869;SDS011;10097;50.862;4.696;2022-10-16T16:10:06;4.30;;;0.82;;
19869;SDS011;10097;50.862;4.696;2022-10-16T16:12:33;4.10;;;1.00;;
19869;SDS011;10097;50.862;4.696;2022-10-16T16:14:59;5.80;;;0.80;;
19869;SDS011;10097;50.862;4.696;2022-10-16T16:17:25;6.68;;;0.70;;
19869;SDS011;10097;50.862;4.696;2022-10-16T16:19:51;4.88;;;1.85;;
19869;SDS011;10097;50.862;4.696;2022-10-16T16:22:17;2.90;;;0.80;;
19869;SDS011;10097;50.862;4.696;2022-10-16T16:24:43;6.10;;;1.10;;
19869;SDS011;10097;50.862;4.696;2022-10-16T16:27:09;4.22;;;1.00;;
19869;SDS011;10097;50.862;4.696;2022-10-16T16:29:37;4.57;;;1.00;;
19869;SDS011;10097;50.862;4.696;2022-10-16T16:32:03;5.15;;;1.10;;
19869;SDS011;10097;50.862;4.696;2022-10-16T16:34:29;6.78;;;1.40;;
19869;SDS011;10097;50.862;4.696;2022-10-16T16:36:55;8.27;;;2.03;;
19869;SDS011;10097;50.862;4.696;2022-10-16T16:39:21;8.05;;;1.45;;
19869;SDS011;10097;50.862;4.696;2022-10-16T16:41:51;6.90;;;1.80;;
19869;SDS011;10097;50.862;4.696;2022-10-16T16:44:17;3.60;;;1.17;;
19869;SDS011;10097;50.862;4.696;2022-10-16T16:46:43;4.30;;;1.15;;
19869;SDS011;10097;50.862;4.696;2022-10-16T16:49:10;5.43;;;1.42;;
19869;SDS011;10097;50.862;4.696;2022-10-16T16:51:40;7.80;;;1.60;;
19869;SDS011;10097;50.862;4.696;2022-10-16T16:54:06;6.00;;;1.35;;
19869;SDS011;10097;50.862;4.696;2022-10-16T16:56:34;4.47;;;1.40;;
19869;SDS011;10097;50.862;4.696;2022-10-16T16:58:59;6.68;;;1.20;;
19869;SDS011;10097;50.862;4.696;2022-10-16T17:01:26;7.40;;;1.63;;
19869;SDS011;10097;50.862;4.696;2022-10-16T17:04:04;11.85;;;2.90;;
19869;SDS011;10097;50.862;4.696;2022-10-16T17:06:31;6.65;;;2.15;;